RAP weather

Rapid City Regional Airport
Rapid City, South Dakota, United States

Public forecast

Using degrees Fahrenheit for public forecast. Weather courtesy of forecast.io.

METAR (pilot weather report)

Retrieved 2019/04/26 00:52 UTC (1 hour ago):

KRAP 260052Z 36011KT 10SM SCT080 11/00 A3017 RMK AO2 SLP222 T01110000

TAF (pilot weather forecast)

Forecast is more than 12 hours old.

Retrieved 2019/04/25 00:22 UTC (1 day ago):

TAF KRAP 252320Z 2600/2624 34018G28KT P6SM SCT050 FM260200 VRB05KT P6SM SCT100 FM261500 16015G25KT P6SM BKN060